Time;durP1;ratioP1;P1;durP2;ratioP2;P2;SDS_P1;SDS_P2;PMS_P1;PMS_P2;Temp;Humidity;BMP_temperature;BMP_pressure;BME280_temperature;BME280_humidity;BME280_pressure;Samples;Min_cycle;Max_cycle;Signal;HPM_P1;HPM_P2
2020/12/27 00:00:25;;;;;;;3.38;1.77;;;;;;;3.87;78.15;100337.66;10128388;28;20224;-65
2020/12/27 00:05:21;;;;;;;4.55;2.10;;;;;;;3.85;78.73;100317.38;10138182;28;20058;-65
2020/12/27 00:10:18;;;;;;;3.80;1.85;;;;;;;3.86;78.53;100290.06;10132588;28;20141;-65
2020/12/27 00:15:14;;;;;;;6.90;2.53;;;;;;;3.89;78.80;100291.41;10134581;28;20073;-65
2020/12/27 00:20:10;;;;;;;3.47;1.73;;;;;;;3.83;78.80;100271.72;10135640;28;20073;-65
2020/12/27 00:25:06;;;;;;;4.60;2.13;;;;;;;3.82;78.79;100259.28;10138827;28;20487;-65
2020/12/27 00:30:03;;;;;;;4.55;2.20;;;;;;;3.82;78.97;100253.88;10138906;28;20058;-65
2020/12/27 00:34:59;;;;;;;4.22;1.63;;;;;;;3.76;79.82;100238.75;10128663;28;20062;-65
2020/12/27 00:39:56;;;;;;;4.63;1.98;;;;;;;3.69;81.54;100235.56;10128775;28;20046;-65
2020/12/27 00:44:52;;;;;;;3.95;2.00;;;;;;;3.53;83.39;100246.53;10137884;28;20133;-65
2020/12/27 00:49:48;;;;;;;5.13;2.05;;;;;;;3.51;83.72;100220.88;10132606;28;20574;-65
2020/12/27 00:54:45;;;;;;;3.53;1.90;;;;;;;3.57;83.20;100171.91;10136538;28;20530;-65
2020/12/27 00:59:40;;;;;;;6.80;2.45;;;;;;;3.54;83.61;100179.75;10138298;28;20058;-65
2020/12/27 01:04:36;;;;;;;4.38;2.20;;;;;;;3.57;83.10;100155.69;10132769;28;20054;-65
2020/12/27 01:09:32;;;;;;;4.20;2.20;;;;;;;3.58;83.45;100141.06;10133718;28;20043;-65
2020/12/27 01:14:28;;;;;;;5.40;2.50;;;;;;;3.30;85.26;100131.06;10134591;28;20153;-65
2020/12/27 01:19:24;;;;;;;5.75;2.90;;;;;;;3.20;86.05;100128.44;10131452;28;20051;-65
2020/12/27 01:24:20;;;;;;;5.18;2.78;;;;;;;3.14;85.60;100098.75;10141026;28;20050;-65
2020/12/27 01:29:16;;;;;;;5.70;3.22;;;;;;;3.05;86.57;100095.06;10133809;28;20050;-65
2020/12/27 01:34:12;;;;;;;5.93;3.80;;;;;;;2.93;87.33;100083.81;10127857;28;20050;-65
2020/12/27 01:39:09;;;;;;;6.38;3.55;;;;;;;2.84;87.47;100072.00;10138843;28;20046;-65
2020/12/27 01:44:12;;;;;;;5.75;4.03;;;;;;;2.84;87.25;100050.41;10139085;28;20478;-65
2020/12/27 01:49:09;;;;;;;8.27;3.40;;;;;;;2.72;87.18;100039.97;10136814;28;20086;-65
2020/12/27 01:54:06;;;;;;;6.93;3.63;;;;;;;2.76;87.06;100042.91;10149241;28;20494;-65
2020/12/27 01:59:09;;;;;;;5.57;2.70;;;;;;;2.73;86.74;100034.28;10126533;28;20050;-65
2020/12/27 02:04:05;;;;;;;6.30;3.42;;;;;;;2.77;86.37;100001.34;10126321;28;20046;-65
2020/12/27 02:09:03;;;;;;;6.25;2.97;;;;;;;2.77;85.95;99975.13;10126469;28;20051;-65
2020/12/27 02:13:59;;;;;;;8.63;4.80;;;;;;;2.79;85.78;99945.97;10129183;28;20043;-65
2020/12/27 02:19:01;;;;;;;6.05;3.08;;;;;;;2.73;85.37;99926.28;10131879;28;20105;-65
2020/12/27 02:23:58;;;;;;;5.28;2.70;;;;;;;2.76;85.62;99930.31;10134362;28;20050;-65
2020/12/27 02:28:55;;;;;;;6.18;2.97;;;;;;;2.81;85.32;99895.19;10136528;28;20042;-65
2020/12/27 02:33:52;;;;;;;6.78;2.30;;;;;;;2.83;84.77;99902.97;10120798;28;20530;-65
2020/12/27 02:38:48;;;;;;;5.40;2.65;;;;;;;2.82;84.33;99858.19;10141910;28;20085;-65
2020/12/27 02:43:45;;;;;;;6.88;2.50;;;;;;;2.88;84.32;99875.94;10132054;28;20051;-65
2020/12/27 02:48:42;;;;;;;6.18;2.08;;;;;;;2.94;83.76;99861.28;10137214;28;20050;-65
2020/12/27 02:53:38;;;;;;;4.32;1.38;;;;;;;2.99;82.26;99853.13;10139278;28;20042;-65
2020/12/27 02:58:34;;;;;;;4.10;2.00;;;;;;;3.06;81.34;99820.38;10139160;28;20142;-65
2020/12/27 03:03:30;;;;;;;7.55;1.70;;;;;;;3.09;80.79;99825.19;10136703;28;20055;-65
2020/12/27 03:08:26;;;;;;;4.38;1.20;;;;;;;3.17;80.11;99806.44;10139065;28;20061;-65
2020/12/27 03:13:22;;;;;;;3.83;1.38;;;;;;;3.23;79.79;99776.66;10143907;28;20050;-65
2020/12/27 03:18:18;;;;;;;2.97;1.13;;;;;;;3.22;79.30;99766.94;10116551;28;20108;-65
2020/12/27 03:23:15;;;;;;;4.93;1.65;;;;;;;3.25;78.78;99747.44;10126417;28;20050;-65
2020/12/27 03:28:11;;;;;;;4.20;1.63;;;;;;;3.28;78.21;99741.47;10119895;28;20597;-65
2020/12/27 03:33:08;;;;;;;2.90;1.20;;;;;;;3.26;77.30;99727.44;10146309;28;20124;-65
2020/12/27 03:38:04;;;;;;;4.07;1.40;;;;;;;3.31;76.80;99713.84;10134784;28;20054;-65
2020/12/27 03:43:00;;;;;;;3.25;0.98;;;;;;;3.33;76.79;99690.06;10124622;28;20046;-65
2020/12/27 03:47:56;;;;;;;5.30;1.50;;;;;;;3.32;76.31;99683.06;10135264;28;20050;-65
2020/12/27 03:52:52;;;;;;;3.45;1.40;;;;;;;3.32;75.73;99666.84;10135944;28;20038;-65
2020/12/27 03:57:48;;;;;;;4.18;1.40;;;;;;;3.32;75.57;99653.34;10132760;28;20050;-65
2020/12/27 04:02:43;;;;;;;2.70;1.10;;;;;;;3.27;75.37;99661.50;10130334;28;20518;-65
2020/12/27 04:07:40;;;;;;;4.75;1.40;;;;;;;3.26;75.39;99619.38;10128497;28;20082;-65
2020/12/27 04:12:46;;;;;;;4.32;1.40;;;;;;;3.27;74.91;99605.59;10140134;28;20092;-65
2020/12/27 04:17:42;;;;;;;2.97;1.40;;;;;;;3.24;74.28;99594.56;10133812;28;20157;-66
2020/12/27 04:22:38;;;;;;;3.15;1.40;;;;;;;3.22;74.55;99570.53;10129441;28;20129;-65
2020/12/27 04:27:34;;;;;;;3.28;1.45;;;;;;;3.19;73.62;99570.34;10138686;28;20056;-65
2020/12/27 04:32:30;;;;;;;3.88;1.02;;;;;;;3.15;73.99;99568.22;10134690;28;20051;-64
2020/12/27 04:37:27;;;;;;;3.40;1.27;;;;;;;3.17;73.51;99546.31;10131233;28;20047;-65
2020/12/27 04:42:24;;;;;;;4.13;1.38;;;;;;;3.20;73.73;99528.72;10135566;28;20577;-65
2020/12/27 04:47:22;;;;;;;2.25;1.10;;;;;;;3.20;73.07;99523.31;10144053;28;20561;-65
2020/12/27 04:52:21;;;;;;;3.53;1.40;;;;;;;3.16;73.12;99515.81;10139069;28;20112;-65
2020/12/27 04:57:18;;;;;;;11.32;2.55;;;;;;;3.14;73.29;99509.13;10124553;28;20085;-65
2020/12/27 05:02:15;;;;;;;4.55;1.70;;;;;;;3.11;73.31;99499.72;10135229;28;20109;-65
2020/12/27 05:07:19;;;;;;;4.82;1.98;;;;;;;3.03;72.93;99505.78;10116599;28;20082;-65
2020/12/27 05:12:17;;;;;;;4.53;1.42;;;;;;;3.10;72.17;99481.88;10121461;28;20076;-65
2020/12/27 05:17:14;;;;;;;4.30;2.20;;;;;;;3.05;71.96;99446.88;10144143;28;20054;-65
2020/12/27 05:22:11;;;;;;;4.25;1.88;;;;;;;2.97;72.33;99428.69;10139987;28;20287;-65
2020/12/27 05:27:12;;;;;;;3.90;1.48;;;;;;;2.93;72.06;99438.47;10136457;28;20380;-65
2020/12/27 05:32:11;;;;;;;5.30;2.15;;;;;;;2.93;72.36;99406.06;10137743;28;20482;-65
2020/12/27 05:37:07;;;;;;;4.53;2.17;;;;;;;2.88;72.35;99414.28;10137016;28;20046;-64
2020/12/27 05:42:05;;;;;;;5.03;2.17;;;;;;;2.84;72.45;99397.84;10142866;28;20051;-65
2020/12/27 05:47:02;;;;;;;4.53;2.40;;;;;;;2.86;72.08;99392.97;10141989;28;20058;-65
2020/12/27 05:51:59;;;;;;;8.55;3.60;;;;;;;2.74;72.66;99393.44;10147670;28;20502;-65
2020/12/27 05:56:57;;;;;;;4.93;2.40;;;;;;;2.73;72.55;99358.66;10141355;28;20050;-65
2020/12/27 06:01:55;;;;;;;4.28;2.22;;;;;;;2.71;72.99;99355.44;10147180;28;20097;-64
2020/12/27 06:07:00;;;;;;;6.05;2.58;;;;;;;2.68;72.11;99339.84;10116913;28;20145;-65
2020/12/27 06:12:02;;;;;;;4.70;2.10;;;;;;;2.69;72.13;99336.88;10140337;28;20422;-65
2020/12/27 06:17:08;;;;;;;6.07;2.20;;;;;;;2.61;72.44;99307.06;10138133;28;20054;-65
2020/12/27 06:22:09;;;;;;;5.65;2.25;;;;;;;2.69;72.34;99298.25;10140734;28;20042;-65
2020/12/27 06:27:06;;;;;;;6.38;2.20;;;;;;;2.63;72.39;99300.28;10145576;28;20132;-64
2020/12/27 06:32:04;;;;;;;5.80;2.00;;;;;;;2.67;71.98;99289.66;10128306;28;20638;-65
2020/12/27 06:37:07;;;;;;;3.80;1.50;;;;;;;2.67;71.22;99284.25;10135955;28;20507;-65
2020/12/27 06:42:10;;;;;;;4.30;1.80;;;;;;;2.70;71.87;99265.59;10144523;28;20101;-65
2020/12/27 06:47:07;;;;;;;4.93;2.03;;;;;;;2.71;71.40;99240.19;10129748;28;21119;-65
2020/12/27 06:52:23;;;;;;;5.90;2.15;;;;;;;2.80;71.20;99244.88;10131464;28;20090;-65
2020/12/27 06:57:44;;;;;;;2.78;1.30;;;;;;;2.74;70.73;99209.91;10139272;28;20519;-65
2020/12/27 07:02:41;;;;;;;3.90;1.75;;;;;;;2.76;71.00;99201.50;10123978;28;20113;-65
2020/12/27 07:07:44;;;;;;;5.35;1.88;;;;;;;2.75;71.10;99189.09;10128674;28;20109;-65
2020/12/27 07:12:41;;;;;;;4.07;1.50;;;;;;;2.76;71.22;99211.50;10128636;28;20882;-65
2020/12/27 07:17:41;;;;;;;3.88;1.27;;;;;;;2.78;70.60;99176.91;10128889;28;20533;-65
2020/12/27 07:22:37;;;;;;;3.85;1.42;;;;;;;2.77;69.81;99175.31;10135558;28;20462;-65
2020/12/27 07:27:39;;;;;;;2.58;0.95;;;;;;;2.73;70.00;99159.72;10138183;28;20078;-65
2020/12/27 07:32:40;;;;;;;3.10;1.40;;;;;;;2.84;70.26;99137.91;10142542;28;20047;-65
2020/12/27 07:37:37;;;;;;;4.90;1.30;;;;;;;2.80;70.33;99142.31;10135727;28;20689;-65
2020/12/27 07:42:34;;;;;;;4.55;1.38;;;;;;;2.81;70.39;99116.91;10134786;28;20046;-65
2020/12/27 07:47:39;;;;;;;2.85;1.10;;;;;;;2.81;70.26;99103.41;10135827;28;20486;-65
2020/12/27 07:52:46;;;;;;;3.92;1.13;;;;;;;2.86;69.61;99087.13;10136981;28;20058;-66
2020/12/27 07:57:43;;;;;;;3.20;1.38;;;;;;;2.77;69.90;99078.94;10141338;28;20066;-66
2020/12/27 08:02:43;;;;;;;2.95;1.27;;;;;;;2.83;70.58;99079.63;10142649;28;20046;-66
2020/12/27 08:07:40;;;;;;;3.08;1.08;;;;;;;2.80;70.06;99061.34;10141329;28;20080;-66
2020/12/27 08:12:36;;;;;;;3.20;1.30;;;;;;;2.80;69.50;99045.16;10146669;28;20139;-68
2020/12/27 08:17:32;;;;;;;3.20;1.20;;;;;;;2.80;69.95;99026.25;10141342;28;20054;-66
2020/12/27 08:22:27;;;;;;;2.72;1.13;;;;;;;2.79;69.85;99027.38;10143658;28;20042;-66
2020/12/27 08:27:23;;;;;;;5.05;1.35;;;;;;;2.86;69.92;99011.53;10133503;28;20697;-66
2020/12/27 08:32:19;;;;;;;7.65;1.60;;;;;;;2.87;69.34;98996.91;10130671;28;20058;-66
2020/12/27 08:37:16;;;;;;;2.20;1.00;;;;;;;2.85;69.91;98985.63;10125230;28;20473;-66
2020/12/27 08:42:37;;;;;;;4.13;1.30;;;;;;;2.89;69.77;98994.72;10133311;28;20077;-66
2020/12/27 08:47:42;;;;;;;4.22;1.45;;;;;;;2.87;70.26;98991.53;10131149;28;20050;-66
2020/12/27 08:52:39;;;;;;;3.83;1.40;;;;;;;2.90;69.47;98980.09;10132384;28;20044;-66
2020/12/27 08:57:36;;;;;;;4.03;1.45;;;;;;;2.90;70.23;98969.28;10134586;28;20125;-66
2020/12/27 09:02:32;;;;;;;2.38;1.08;;;;;;;2.90;70.14;98951.22;10134265;28;20522;-66
2020/12/27 09:07:47;;;;;;;2.55;1.08;;;;;;;2.99;69.91;98935.03;10126011;28;20047;-66
2020/12/27 09:13:06;;;;;;;3.13;1.00;;;;;;;3.02;70.35;98922.81;10129482;28;20380;-66
2020/12/27 09:18:07;;;;;;;4.43;1.45;;;;;;;3.07;69.55;98926.19;10130166;28;20522;-68
2020/12/27 09:23:23;;;;;;;3.78;1.30;;;;;;;3.08;70.25;98916.97;10140508;28;20058;-66
2020/12/27 09:28:21;;;;;;;3.72;1.25;;;;;;;3.09;70.58;98893.50;10130116;28;20061;-66
2020/12/27 09:33:20;;;;;;;2.70;1.17;;;;;;;3.14;71.06;98888.72;10140830;28;20054;-66
2020/12/27 09:38:28;;;;;;;2.95;1.10;;;;;;;3.23;71.10;98852.88;10134047;28;20054;-66
2020/12/27 09:43:25;;;;;;;5.60;1.40;;;;;;;3.26;70.17;98849.53;10132392;28;20074;-66
2020/12/27 09:48:30;;;;;;;6.50;1.30;;;;;;;3.26;70.23;98850.31;10126324;28;20062;-66
2020/12/27 09:53:26;;;;;;;2.95;1.02;;;;;;;3.29;70.37;98829.97;10133370;28;20491;-66
2020/12/27 09:58:22;;;;;;;3.53;1.20;;;;;;;3.30;69.80;98821.56;10123308;28;20054;-66
2020/12/27 10:03:18;;;;;;;3.88;1.10;;;;;;;3.33;70.07;98793.13;10133718;28;20046;-66
2020/12/27 10:08:13;;;;;;;2.75;1.00;;;;;;;3.33;69.89;98782.31;10127623;28;20137;-66
2020/12/27 10:13:22;;;;;;;2.15;0.90;;;;;;;3.38;70.18;98774.84;10143643;28;20058;-66
2020/12/27 10:18:18;;;;;;;2.40;0.80;;;;;;;3.44;69.19;98756.59;10132134;28;20058;-66
2020/12/27 10:23:14;;;;;;;2.83;1.05;;;;;;;3.45;69.27;98752.75;10133894;28;20163;-66
2020/12/27 10:28:10;;;;;;;2.08;0.80;;;;;;;3.53;68.73;98753.88;10139835;28;20491;-65
2020/12/27 10:33:06;;;;;;;5.05;1.77;;;;;;;3.53;68.48;98738.47;10139103;28;20073;-66
2020/12/27 10:38:02;;;;;;;2.42;1.05;;;;;;;3.62;68.12;98751.16;10141138;28;20082;-66
2020/12/27 10:42:58;;;;;;;2.78;0.70;;;;;;;3.64;67.97;98727.31;10142515;28;20046;-65
2020/12/27 10:47:54;;;;;;;2.05;0.73;;;;;;;3.69;67.98;98702.81;10142351;28;20050;-66
2020/12/27 10:52:50;;;;;;;2.60;0.80;;;;;;;3.76;67.47;98701.22;10134339;28;20051;-66
2020/12/27 10:57:46;;;;;;;2.90;0.85;;;;;;;3.77;68.29;98694.69;10132751;28;20053;-66
2020/12/27 11:02:42;;;;;;;2.67;0.88;;;;;;;3.83;67.05;98698.03;10134129;28;20053;-66
2020/12/27 11:07:38;;;;;;;1.95;0.80;;;;;;;3.88;66.83;98689.75;10137929;28;20062;-67
2020/12/27 11:12:34;;;;;;;2.05;0.57;;;;;;;3.93;66.96;98662.53;10138771;28;20503;-66
2020/12/27 11:17:30;;;;;;;1.83;0.60;;;;;;;3.97;66.73;98643.75;10134152;28;20489;-66
2020/12/27 11:22:26;;;;;;;2.38;0.80;;;;;;;4.00;66.78;98619.56;10139918;28;20404;-66
2020/12/27 11:27:22;;;;;;;2.58;0.70;;;;;;;4.03;67.18;98625.44;10144385;28;20093;-66
2020/12/27 11:32:18;;;;;;;1.70;0.50;;;;;;;4.07;66.42;98593.91;10141742;28;20401;-66
2020/12/27 11:37:14;;;;;;;1.90;0.80;;;;;;;4.07;66.86;98604.75;10134712;28;20054;-66
2020/12/27 11:42:10;;;;;;;6.88;1.45;;;;;;;4.10;66.32;98598.66;10139548;28;20093;-66
2020/12/27 11:47:07;;;;;;;3.35;0.82;;;;;;;4.16;67.62;98563.00;10135462;28;20077;-66
2020/12/27 11:52:03;;;;;;;1.90;0.60;;;;;;;4.18;67.19;98562.69;10136544;28;20498;-66
2020/12/27 11:56:59;;;;;;;1.60;0.70;;;;;;;4.19;67.87;98542.63;10121848;28;20051;-66
2020/12/27 12:01:55;;;;;;;3.42;1.00;;;;;;;4.21;66.77;98518.75;10125744;28;20131;-66
2020/12/27 12:06:51;;;;;;;3.38;0.93;;;;;;;4.21;67.20;98524.16;10129278;28;20403;-67
2020/12/27 12:11:47;;;;;;;2.60;0.60;;;;;;;4.13;67.78;98514.97;10137727;28;20054;-66
2020/12/27 12:16:43;;;;;;;3.53;1.20;;;;;;;4.15;67.87;98490.28;10119786;28;20058;-66
2020/12/27 12:21:39;;;;;;;1.98;0.70;;;;;;;4.13;68.35;98479.00;10129475;28;20054;-66
2020/12/27 12:26:36;;;;;;;3.60;1.10;;;;;;;4.11;68.87;98486.69;10127041;28;20106;-66
2020/12/27 12:31:32;;;;;;;3.00;1.13;;;;;;;4.01;70.06;98482.44;10129847;28;20050;-66
2020/12/27 12:36:29;;;;;;;4.15;1.02;;;;;;;3.96;70.98;98472.59;10119325;28;20533;-66
2020/12/27 12:41:27;;;;;;;3.45;1.08;;;;;;;3.79;72.19;98459.22;10134151;28;20050;-66
2020/12/27 12:46:23;;;;;;;6.75;1.13;;;;;;;3.68;74.41;98458.00;10135979;28;20137;-66
2020/12/27 12:51:22;;;;;;;2.70;1.00;;;;;;;3.59;75.53;98455.34;10134744;28;20118;-66
2020/12/27 12:56:19;;;;;;;2.92;1.20;;;;;;;3.52;76.13;98445.03;10134973;28;20736;-66
2020/12/27 13:01:15;;;;;;;3.90;1.23;;;;;;;3.38;76.79;98444.50;10132133;28;20054;-66
2020/12/27 13:06:12;;;;;;;3.53;1.38;;;;;;;3.31;78.10;98422.59;10132969;28;20078;-67
2020/12/27 13:11:08;;;;;;;5.25;1.42;;;;;;;3.21;79.22;98412.97;10130630;28;20054;-66
2020/12/27 13:16:04;;;;;;;3.05;1.20;;;;;;;3.18;78.69;98405.53;10128161;28;20695;-66
2020/12/27 13:21:00;;;;;;;4.25;1.65;;;;;;;3.14;80.51;98402.66;10123317;28;20047;-67
2020/12/27 13:25:56;;;;;;;4.53;1.27;;;;;;;3.07;79.77;98380.78;10108211;28;20520;-66
2020/12/27 13:30:52;;;;;;;3.70;1.15;;;;;;;2.98;81.19;98373.84;10132298;28;20050;-67
2020/12/27 13:35:48;;;;;;;6.40;1.90;;;;;;;3.00;81.10;98375.09;10117746;28;20046;-66
2020/12/27 13:40:44;;;;;;;3.75;1.33;;;;;;;3.02;80.75;98362.06;10137788;28;20051;-66
2020/12/27 13:45:44;;;;;;;5.68;1.80;;;;;;;3.02;80.80;98362.06;10146430;28;20137;-66
2020/12/27 13:50:40;;;;;;;3.78;1.50;;;;;;;3.04;80.74;98343.63;10136603;28;20054;-66
2020/12/27 13:55:40;;;;;;;5.35;1.70;;;;;;;2.97;81.05;98343.38;10139127;28;20057;-66
2020/12/27 14:00:36;;;;;;;5.28;1.40;;;;;;;2.97;81.74;98337.97;10138550;28;20113;-66
2020/12/27 14:05:34;;;;;;;5.80;1.55;;;;;;;2.97;81.38;98332.56;10136868;28;20607;-66
2020/12/27 14:10:30;;;;;;;6.22;1.85;;;;;;;2.98;81.52;98325.25;10127585;28;20142;-66
2020/12/27 14:15:26;;;;;;;4.35;1.83;;;;;;;2.94;81.68;98327.78;10143094;28;20101;-66
2020/12/27 14:20:22;;;;;;;6.32;1.92;;;;;;;2.89;82.98;98325.28;10132462;28;20426;-66
2020/12/27 14:25:18;;;;;;;3.35;1.35;;;;;;;2.79;82.73;98325.66;10108094;28;20644;-66
2020/12/27 14:30:14;;;;;;;4.10;1.88;;;;;;;2.87;82.69;98308.63;10117994;28;20097;-66
2020/12/27 14:35:10;;;;;;;4.30;2.20;;;;;;;2.82;82.92;98311.50;10124781;28;20046;-66
2020/12/27 14:40:06;;;;;;;5.15;1.88;;;;;;;2.78;83.41;98297.09;10143731;28;20050;-66
2020/12/27 14:45:02;;;;;;;6.65;2.03;;;;;;;2.70;83.58;98296.00;10133821;28;20129;-66
2020/12/27 14:49:59;;;;;;;5.07;1.80;;;;;;;2.73;83.93;98290.75;10141705;28;20486;-66
2020/12/27 14:54:55;;;;;;;7.05;2.08;;;;;;;2.78;83.90;98286.28;10129283;28;20062;-66
2020/12/27 14:59:51;;;;;;;4.28;1.73;;;;;;;2.66;84.29;98271.56;10144110;28;20125;-66
2020/12/27 15:04:47;;;;;;;4.70;2.08;;;;;;;2.73;84.39;98266.47;10129012;28;20054;-66
2020/12/27 15:09:44;;;;;;;4.30;2.00;;;;;;;2.74;84.55;98254.56;10139228;28;20050;-66
2020/12/27 15:14:40;;;;;;;6.38;2.53;;;;;;;2.73;84.80;98250.28;10138245;28;20578;-66
2020/12/27 15:19:36;;;;;;;3.92;1.70;;;;;;;2.76;84.48;98226.44;10132100;28;20715;-66
2020/12/27 15:24:32;;;;;;;5.03;2.22;;;;;;;2.74;84.66;98226.78;10129422;28;20059;-65
2020/12/27 15:29:28;;;;;;;2.65;1.25;;;;;;;2.71;84.24;98214.72;10138308;28;20081;-66
2020/12/27 15:34:24;;;;;;;4.72;2.10;;;;;;;2.76;84.93;98221.06;10124311;28;20053;-66
2020/12/27 15:39:21;;;;;;;4.82;2.33;;;;;;;2.68;84.63;98212.69;10138235;28;20080;-66
2020/12/27 15:44:16;;;;;;;6.70;1.98;;;;;;;2.61;84.32;98198.91;10134869;28;20046;-66
2020/12/27 15:49:13;;;;;;;7.50;2.50;;;;;;;2.58;84.89;98199.59;10142498;28;20054;-66
2020/12/27 15:54:09;;;;;;;4.18;2.10;;;;;;;2.49;84.74;98217.72;10135387;28;20078;-66
2020/12/27 15:59:05;;;;;;;6.97;3.10;;;;;;;2.55;84.49;98192.13;10136500;28;20073;-66
2020/12/27 16:04:02;;;;;;;3.97;1.95;;;;;;;2.49;85.08;98188.06;10138291;28;20065;-66
2020/12/27 16:08:58;;;;;;;8.32;3.05;;;;;;;2.48;85.17;98175.66;10129300;28;20042;-66
2020/12/27 16:13:55;;;;;;;5.03;2.70;;;;;;;2.42;85.26;98187.78;10142149;28;20070;-65
2020/12/27 16:18:51;;;;;;;6.75;3.47;;;;;;;2.47;85.31;98185.66;10111738;28;20077;-64
2020/12/27 16:23:47;;;;;;;4.88;2.75;;;;;;;2.42;85.49;98171.59;10139784;28;20059;-65
2020/12/27 16:28:44;;;;;;;6.25;2.65;;;;;;;2.35;85.55;98177.50;10142599;28;20591;-65
2020/12/27 16:33:43;;;;;;;7.07;3.42;;;;;;;2.37;86.20;98174.44;10131127;28;20053;-62
2020/12/27 16:41:28;;;;;;;7.50;2.28;;;;;;;2.23;86.10;98159.31;10253769;28;20549;-63
2020/12/27 16:46:24;;;;;;;7.60;3.72;;;;;;;2.39;85.84;98147.94;10253749;28;20463;-65
2020/12/27 16:51:21;;;;;;;5.38;2.40;;;;;;;2.42;86.24;98136.53;10254908;28;20057;-66
2020/12/27 16:56:23;;;;;;;5.38;2.83;;;;;;;2.38;85.56;98149.09;10255810;28;20114;-65
2020/12/27 17:01:19;;;;;;;6.65;2.95;;;;;;;2.43;85.70;98103.81;10255369;28;20049;-63
2020/12/27 17:06:15;;;;;;;5.63;3.10;;;;;;;2.41;86.49;98111.44;10260777;28;20053;-64
2020/12/27 17:11:11;;;;;;;5.38;2.92;;;;;;;2.41;86.41;98097.19;10265652;28;20560;-65
2020/12/27 17:16:08;;;;;;;7.32;4.07;;;;;;;2.26;86.50;98107.44;10268879;28;20053;-64
2020/12/27 17:21:04;;;;;;;8.02;4.25;;;;;;;2.37;86.15;98098.94;10257187;28;20057;-64
2020/12/27 17:26:00;;;;;;;6.45;4.10;;;;;;;2.28;85.86;98091.72;10248637;28;20103;-64
2020/12/27 17:30:56;;;;;;;8.57;4.22;;;;;;;2.20;86.55;98084.47;10263014;28;20044;-64
2020/12/27 17:35:52;;;;;;;9.75;4.30;;;;;;;2.20;86.39;98084.47;10253007;28;20053;-65
2020/12/27 17:40:48;;;;;;;7.90;4.07;;;;;;;2.19;86.22;98082.09;10293808;28;20067;-64
2020/12/27 17:45:44;;;;;;;7.07;4.15;;;;;;;2.05;86.49;98071.56;10293986;28;20057;-65
2020/12/27 17:50:40;;;;;;;7.18;4.22;;;;;;;2.05;86.46;98082.34;10281749;28;20113;-64
2020/12/27 17:55:36;;;;;;;9.63;3.92;;;;;;;2.07;86.32;98062.03;10305825;28;20045;-64
2020/12/27 18:00:34;;;;;;;6.47;3.72;;;;;;;2.07;86.09;98043.16;10299169;28;20064;-64
2020/12/27 18:05:30;;;;;;;6.95;3.85;;;;;;;2.04;86.19;98059.19;10310269;28;20110;-64
2020/12/27 18:10:26;;;;;;;6.55;4.13;;;;;;;2.05;86.26;98060.78;10304043;28;20048;-65
2020/12/27 18:15:22;;;;;;;7.95;4.25;;;;;;;2.00;86.16;98063.69;10302038;28;20486;-64
2020/12/27 18:20:18;;;;;;;6.97;4.03;;;;;;;1.96;87.01;98051.97;10308508;28;20056;-64
2020/12/27 18:25:16;;;;;;;8.13;3.78;;;;;;;2.11;86.44;98043.28;10315562;28;20086;-63
2020/12/27 18:30:12;;;;;;;8.35;4.53;;;;;;;2.06;86.76;98046.19;10311619;28;20070;-65
2020/12/27 18:35:08;;;;;;;8.30;4.07;;;;;;;2.13;86.40;98041.06;10297781;28;20063;-64
2020/12/27 18:40:04;;;;;;;6.47;3.97;;;;;;;2.11;86.48;98032.50;10306040;28;20507;-65
2020/12/27 18:45:00;;;;;;;7.57;3.40;;;;;;;2.19;86.67;98031.66;10300805;28;20142;-63
2020/12/27 18:49:58;;;;;;;6.15;3.28;;;;;;;2.16;86.34;98026.94;10301724;28;20036;-64
2020/12/27 18:54:54;;;;;;;5.93;3.78;;;;;;;2.29;85.98;98020.47;10313539;28;20436;-64
2020/12/27 18:59:50;;;;;;;6.50;3.03;;;;;;;2.22;86.17;98025.63;10301881;28;20068;-63
2020/12/27 19:04:46;;;;;;;5.68;3.05;;;;;;;2.26;86.00;98014.97;10296911;28;20053;-63
2020/12/27 19:09:42;;;;;;;9.40;3.70;;;;;;;2.30;86.09;98008.59;10316280;28;20052;-64
2020/12/27 19:14:38;;;;;;;8.52;3.95;;;;;;;2.29;85.94;97998.13;10304220;28;20086;-62
2020/12/27 19:19:34;;;;;;;7.97;3.90;;;;;;;2.40;86.25;97995.84;10297999;28;20071;-64
2020/12/27 19:24:30;;;;;;;8.93;4.50;;;;;;;2.40;85.64;98006.63;10314182;28;20097;-63
2020/12/27 19:29:26;;;;;;;7.55;3.50;;;;;;;2.41;85.36;97992.78;10307552;28;20051;-64
2020/12/27 19:34:22;;;;;;;5.90;3.05;;;;;;;2.50;85.62;97990.03;10299690;28;20139;-62
2020/12/27 19:39:21;;;;;;;6.30;3.78;;;;;;;2.52;85.25;97982.41;10298399;28;20056;-64
2020/12/27 19:44:17;;;;;;;5.38;3.25;;;;;;;2.48;85.34;97981.47;10309373;28;20071;-64
2020/12/27 19:49:21;;;;;;;6.45;2.90;;;;;;;2.58;85.33;97973.00;10310209;28;20102;-64
2020/12/27 19:54:18;;;;;;;6.55;2.55;;;;;;;2.56;84.89;97956.34;10302352;28;20565;-64
2020/12/27 19:59:14;;;;;;;5.97;2.85;;;;;;;2.50;85.34;97957.66;10309008;28;20500;-64
2020/12/27 20:04:10;;;;;;;4.68;2.63;;;;;;;2.52;85.64;97950.81;10300152;28;20048;-63
2020/12/27 20:09:06;;;;;;;4.75;2.67;;;;;;;2.60;85.52;97948.38;10312138;28;20059;-63
2020/12/27 20:14:03;;;;;;;6.60;2.53;;;;;;;2.57;86.24;97955.22;10303643;28;20052;-65
2020/12/27 20:18:59;;;;;;;5.10;2.75;;;;;;;2.64;85.93;97955.47;10293336;28;20105;-64
2020/12/27 20:23:55;;;;;;;5.10;2.88;;;;;;;2.61;86.21;97952.66;10317269;28;20126;-64
2020/12/27 20:28:51;;;;;;;6.03;2.83;;;;;;;2.66;85.81;97961.31;10307611;28;20095;-64
2020/12/27 20:33:49;;;;;;;4.53;2.50;;;;;;;2.67;85.27;97946.72;10300174;28;20048;-63
2020/12/27 20:38:45;;;;;;;4.70;2.22;;;;;;;2.60;85.49;97951.88;10299068;28;20489;-64
2020/12/27 20:43:41;;;;;;;6.10;2.80;;;;;;;2.64;85.65;97952.75;10302302;28;20474;-62
2020/12/27 20:48:38;;;;;;;5.93;2.67;;;;;;;2.71;85.01;97947.59;10299690;28;20056;-64
2020/12/27 20:53:33;;;;;;;6.18;3.42;;;;;;;2.60;85.43;97957.25;10303134;28;20075;-62
2020/12/27 20:58:30;;;;;;;5.28;3.03;;;;;;;2.56;85.16;97950.94;10307826;28;20052;-63
2020/12/27 21:03:27;;;;;;;5.57;3.60;;;;;;;2.63;85.30;97956.59;10300685;28;20101;-62
2020/12/27 21:08:23;;;;;;;10.35;4.43;;;;;;;2.54;85.53;97947.78;10301744;28;20055;-62
2020/12/27 21:13:19;;;;;;;7.13;4.43;;;;;;;2.52;85.17;97939.25;10297996;28;20045;-65
2020/12/27 21:18:15;;;;;;;6.57;4.55;;;;;;;2.55;85.67;97933.16;10298715;28;20606;-66
2020/12/27 21:23:11;;;;;;;8.88;5.40;;;;;;;2.50;85.53;97931.47;10287409;28;20278;-66
2020/12/27 21:28:07;;;;;;;7.97;4.93;;;;;;;2.39;85.39;97924.13;10319114;28;20593;-63
2020/12/27 21:33:03;;;;;;;10.70;5.60;;;;;;;2.53;85.84;97930.03;10318333;28;20048;-65
2020/12/27 21:37:59;;;;;;;7.30;4.97;;;;;;;2.64;85.44;97941.19;10324108;28;20036;-63
2020/12/27 21:42:59;;;;;;;7.10;4.47;;;;;;;2.45;85.36;97944.38;10316493;28;20048;-63
2020/12/27 21:47:55;;;;;;;10.50;4.95;;;;;;;2.30;85.87;97949.28;10313038;28;20043;-64
2020/12/27 21:52:51;;;;;;;7.82;4.50;;;;;;;2.25;86.27;97938.69;10308439;28;20052;-65
2020/12/27 21:57:47;;;;;;;11.25;6.03;;;;;;;2.30;86.18;97927.72;10319003;28;20047;-63
2020/12/27 22:02:43;;;;;;;8.60;5.35;;;;;;;2.23;85.93;97927.47;10309899;28;20047;-63
2020/12/27 22:07:39;;;;;;;9.50;5.30;;;;;;;2.22;86.57;97930.47;10309007;28;20093;-64
2020/12/27 22:12:35;;;;;;;10.45;6.22;;;;;;;2.19;86.33;97915.75;10304665;28;20051;-62
2020/12/27 22:17:35;;;;;;;9.35;5.60;;;;;;;2.22;86.90;97898.13;10312496;28;20789;-63
2020/12/27 22:22:31;;;;;;;10.68;5.35;;;;;;;2.08;87.18;97909.19;10328347;28;20055;-64
2020/12/27 22:27:27;;;;;;;8.20;5.68;;;;;;;2.13;87.20;97917.06;10320198;28;20048;-64
2020/12/27 22:32:23;;;;;;;8.35;5.10;;;;;;;2.12;87.05;97903.94;10306206;28;20052;-63
2020/12/27 22:37:19;;;;;;;13.55;8.07;;;;;;;1.99;87.46;97908.47;10308198;28;20056;-64
2020/12/27 22:42:15;;;;;;;8.35;5.43;;;;;;;2.10;87.47;97896.16;10300009;28;20048;-63
2020/12/27 22:47:16;;;;;;;9.85;5.90;;;;;;;2.23;86.60;97900.50;10308351;28;20044;-64
2020/12/27 22:52:12;;;;;;;6.82;4.50;;;;;;;2.14;86.51;97897.09;10306274;28;20052;-64
2020/12/27 22:57:09;;;;;;;8.43;4.20;;;;;;;2.14;86.49;97899.78;10303667;28;20056;-64
2020/12/27 23:02:05;;;;;;;6.47;4.32;;;;;;;2.26;85.93;97886.34;10311267;28;20416;-64
2020/12/27 23:07:05;;;;;;;6.80;4.03;;;;;;;2.19;86.43;97883.41;10308601;28;20052;-64
2020/12/27 23:12:01;;;;;;;8.15;4.35;;;;;;;2.16;86.66;97881.38;10306505;28;20049;-62
2020/12/27 23:16:57;;;;;;;6.90;3.85;;;;;;;2.20;86.15;97879.56;10314022;28;20049;-66